Time;durP1;ratioP1;P1;durP2;ratioP2;P2;SDS_P1;SDS_P2;PMS_P1;PMS_P2;Temp;Humidity;BMP_temperature;BMP_pressure;BME280_temperature;BME280_humidity;BME280_pressure;Samples;Min_cycle;Max_cycle;Signal;HPM_P1;HPM_P2
2022/04/13 00:00:28;;;;;;;9.38;6.18;;;13.90;99.90;;;;;;5018451;28;20044;-64
2022/04/13 00:02:54;;;;;;;11.57;5.38;;;13.90;99.90;;;;;;5014372;28;20103;-64
2022/04/13 00:05:20;;;;;;;7.82;6.70;;;13.80;99.90;;;;;;5016410;28;20136;-64
2022/04/13 00:07:45;;;;;;;7.55;5.15;;;13.80;99.90;;;;;;5000168;28;20056;-63
2022/04/13 00:10:12;;;;;;;6.30;5.70;;;13.70;99.90;;;;;;5014379;28;20041;-64
2022/04/13 00:12:37;;;;;;;8.52;5.60;;;13.70;99.90;;;;;;5037848;28;20084;-64
2022/04/13 00:15:04;;;;;;;6.78;6.00;;;13.60;99.90;;;;;;5006911;28;20128;-65
2022/04/13 00:17:31;;;;;;;7.28;6.05;;;13.60;99.90;;;;;;5037779;28;20048;-64
2022/04/13 00:19:57;;;;;;;6.20;5.63;;;13.60;99.90;;;;;;5036914;28;20048;-64
2022/04/13 00:22:23;;;;;;;7.35;5.30;;;13.50;99.90;;;;;;5037147;28;20056;-64
2022/04/13 00:24:48;;;;;;;8.63;5.50;;;13.50;99.90;;;;;;5037152;28;20069;-64
2022/04/13 00:27:14;;;;;;;8.27;5.63;;;13.50;99.90;;;;;;5019179;28;20053;-64
2022/04/13 00:29:39;;;;;;;6.78;5.88;;;13.40;99.90;;;;;;5037794;28;20106;-64
2022/04/13 00:32:06;;;;;;;7.97;5.78;;;13.40;99.90;;;;;;5037416;28;20048;-64
2022/04/13 00:34:32;;;;;;;6.50;5.80;;;13.30;99.90;;;;;;5001662;28;20053;-64
2022/04/13 00:36:58;;;;;;;11.07;5.63;;;13.30;99.90;;;;;;4999201;28;20563;-64
2022/04/13 00:39:25;;;;;;;6.65;5.35;;;13.20;99.90;;;;;;4999514;28;20064;-64
2022/04/13 00:42:02;;;;;;;8.02;5.18;;;13.20;99.90;;;;;;5016333;28;20788;-65
2022/04/13 00:44:29;;;;;;;8.07;5.57;;;13.20;99.90;;;;;;4999364;28;20087;-64
2022/04/13 00:46:55;;;;;;;5.47;4.80;;;13.20;99.90;;;;;;5016817;28;20078;-64
2022/04/13 00:49:22;;;;;;;7.82;6.05;;;13.20;99.90;;;;;;4997795;28;20045;-64
2022/04/13 00:51:48;;;;;;;6.22;5.63;;;13.10;99.90;;;;;;5007210;28;20053;-64
2022/04/13 00:54:17;;;;;;;5.50;4.97;;;13.10;99.90;;;;;;4996545;28;20045;-64
2022/04/13 00:56:45;;;;;;;6.00;5.00;;;13.00;99.90;;;;;;4997147;28;20057;-64
2022/04/13 00:59:13;;;;;;;5.35;4.85;;;13.00;99.90;;;;;;4997413;28;20065;-64
2022/04/13 01:01:42;;;;;;;9.73;5.18;;;13.00;99.90;;;;;;4979630;28;20132;-64
2022/04/13 01:04:11;;;;;;;7.45;4.68;;;12.90;99.90;;;;;;5002551;28;20802;-64
2022/04/13 01:06:38;;;;;;;6.28;4.90;;;13.00;99.90;;;;;;5002844;28;20364;-64
2022/04/13 01:09:04;;;;;;;7.32;4.57;;;12.90;99.90;;;;;;5006178;28;20041;-64
2022/04/13 01:11:29;;;;;;;8.48;5.47;;;12.90;99.90;;;;;;4997341;28;20066;-64
2022/04/13 01:13:56;;;;;;;8.45;5.78;;;12.90;99.90;;;;;;5027264;28;20057;-64
2022/04/13 01:16:23;;;;;;;7.22;4.88;;;12.90;99.90;;;;;;5015359;28;20120;-64
2022/04/13 01:18:49;;;;;;;7.07;5.60;;;12.80;99.90;;;;;;5017012;28;20042;-63
2022/04/13 01:21:17;;;;;;;7.18;5.30;;;12.80;99.90;;;;;;4999434;28;20436;-64
2022/04/13 01:23:43;;;;;;;6.75;5.45;;;12.80;99.90;;;;;;5028057;28;20057;-64
2022/04/13 01:26:10;;;;;;;8.77;5.53;;;12.80;99.90;;;;;;5036201;28;20990;-64
2022/04/13 01:28:36;;;;;;;9.23;6.25;;;12.80;99.90;;;;;;5018758;28;20056;-64
2022/04/13 01:31:02;;;;;;;7.45;6.13;;;12.90;99.90;;;;;;5018040;28;20037;-64
2022/04/13 01:33:29;;;;;;;7.85;5.88;;;12.80;99.90;;;;;;5018568;28;20099;-64
2022/04/13 01:36:00;;;;;;;8.95;5.90;;;12.90;99.90;;;;;;5018805;28;20476;-64
2022/04/13 01:38:29;;;;;;;6.00;5.10;;;12.90;99.90;;;;;;5036346;28;20049;-64
2022/04/13 01:40:58;;;;;;;9.55;5.53;;;12.90;99.90;;;;;;5018031;28;20053;-64
2022/04/13 01:43:24;;;;;;;8.55;6.20;;;12.90;99.90;;;;;;5035679;28;20084;-64
2022/04/13 01:45:50;;;;;;;7.75;5.68;;;13.30;99.90;;;;;;5036031;28;20118;-64
2022/04/13 01:48:16;;;;;;;11.35;6.45;;;12.90;99.90;;;;;;5035978;28;20049;-64
2022/04/13 01:50:42;;;;;;;7.50;6.43;;;12.90;99.90;;;;;;5035492;28;20041;-64
2022/04/13 01:53:07;;;;;;;8.05;5.10;;;12.90;99.90;;;;;;5036195;28;20057;-64
2022/04/13 01:55:33;;;;;;;7.70;5.75;;;12.90;99.90;;;;;;5018019;28;20054;-64
2022/04/13 01:57:59;;;;;;;6.95;5.80;;;12.90;99.90;;;;;;5017420;28;20052;-64
2022/04/13 02:00:24;;;;;;;6.63;4.75;;;12.90;99.90;;;;;;5035564;28;20045;-64
2022/04/13 02:02:52;;;;;;;7.75;6.15;;;12.90;99.90;;;;;;5035553;28;20049;-64
2022/04/13 02:05:17;;;;;;;8.90;6.78;;;12.90;99.90;;;;;;5035858;28;20120;-64
2022/04/13 02:07:43;;;;;;;5.82;5.25;;;12.90;99.90;;;;;;5018266;28;20053;-64
2022/04/13 02:10:09;;;;;;;9.00;5.32;;;12.90;99.90;;;;;;4987911;28;20092;-64
2022/04/13 02:12:36;;;;;;;6.63;5.63;;;12.90;99.90;;;;;;5016688;28;20052;-65
2022/04/13 02:15:02;;;;;;;10.15;7.00;;;12.90;99.90;;;;;;5005099;28;20045;-64
2022/04/13 02:17:28;;;;;;;8.48;6.03;;;12.90;99.90;;;;;;5036001;28;20049;-64
2022/04/13 02:19:53;;;;;;;7.85;6.07;;;12.90;99.90;;;;;;5018027;28;20049;-63
2022/04/13 02:22:19;;;;;;;13.02;6.82;;;12.90;99.90;;;;;;5036322;28;20049;-64
2022/04/13 02:24:44;;;;;;;8.70;6.03;;;12.80;99.90;;;;;;5018206;28;20045;-64
2022/04/13 02:27:11;;;;;;;7.47;6.00;;;12.80;99.90;;;;;;5017207;28;20099;-64
2022/04/13 02:29:37;;;;;;;9.85;7.35;;;12.80;99.90;;;;;;5021454;28;20408;-64
2022/04/13 02:32:06;;;;;;;10.82;6.40;;;12.70;99.90;;;;;;5039114;28;20049;-64
2022/04/13 02:34:32;;;;;;;9.02;7.38;;;12.80;99.90;;;;;;5014419;28;20905;-64
2022/04/13 02:36:59;;;;;;;8.52;6.90;;;12.70;99.90;;;;;;5000708;28;20053;-64
2022/04/13 02:39:25;;;;;;;12.05;6.50;;;12.80;99.90;;;;;;5018464;28;20619;-64
2022/04/13 02:41:50;;;;;;;8.75;6.45;;;12.70;99.90;;;;;;5034195;28;20052;-64
2022/04/13 02:44:16;;;;;;;8.10;6.80;;;12.70;99.90;;;;;;5038683;28;20405;-63
2022/04/13 02:46:43;;;;;;;6.88;5.22;;;12.70;99.90;;;;;;5038540;28;20052;-64
2022/04/13 02:49:09;;;;;;;9.40;7.00;;;12.70;99.90;;;;;;5035095;28;20822;-64
2022/04/13 02:51:34;;;;;;;8.30;6.80;;;12.70;99.90;;;;;;5004506;28;20049;-64
2022/04/13 02:54:00;;;;;;;10.52;7.32;;;12.70;99.90;;;;;;4981003;28;20137;-64
2022/04/13 02:56:25;;;;;;;8.02;6.35;;;12.60;99.90;;;;;;5017939;28;20053;-64
2022/04/13 02:58:51;;;;;;;10.40;6.90;;;12.60;99.90;;;;;;4995246;28;20054;-64
2022/04/13 03:01:16;;;;;;;9.32;7.50;;;12.60;99.90;;;;;;4980850;28;20058;-64
2022/04/13 03:03:42;;;;;;;8.98;6.75;;;12.50;99.90;;;;;;4998922;28;20476;-64
2022/04/13 03:06:08;;;;;;;11.52;7.82;;;12.50;99.90;;;;;;4981574;28;20567;-64
2022/04/13 03:08:33;;;;;;;8.30;7.07;;;12.40;99.90;;;;;;4998412;28;20084;-64
2022/04/13 03:10:59;;;;;;;7.47;6.72;;;12.40;99.90;;;;;;4980926;28;20060;-64
2022/04/13 03:13:24;;;;;;;8.90;6.25;;;12.40;99.90;;;;;;4998937;28;20053;-64
2022/04/13 03:15:50;;;;;;;9.65;7.95;;;12.40;99.90;;;;;;4980778;28;20585;-64
2022/04/13 03:18:15;;;;;;;11.82;6.72;;;12.40;99.90;;;;;;4999318;28;20052;-64
2022/04/13 03:20:41;;;;;;;13.20;8.13;;;12.40;99.90;;;;;;4981670;28;20509;-64
2022/04/13 03:23:07;;;;;;;9.07;7.65;;;12.40;99.90;;;;;;4998209;28;20049;-64
2022/04/13 03:25:33;;;;;;;10.48;8.27;;;12.40;99.90;;;;;;4998645;28;20042;-64
2022/04/13 03:27:59;;;;;;;12.32;7.93;;;12.40;99.90;;;;;;4998669;28;20092;-64
2022/04/13 03:30:24;;;;;;;12.18;9.57;;;12.30;99.90;;;;;;4998002;28;20097;-64
2022/04/13 03:32:53;;;;;;;10.75;7.90;;;12.40;99.90;;;;;;4998514;28;20046;-64
2022/04/13 03:35:19;;;;;;;13.40;7.30;;;12.40;99.90;;;;;;4980868;28;20595;-64
2022/04/13 03:37:44;;;;;;;11.18;8.63;;;12.40;99.90;;;;;;4998077;28;20054;-64
2022/04/13 03:40:11;;;;;;;12.20;7.80;;;12.30;99.90;;;;;;4980293;28;20056;-64
2022/04/13 03:42:38;;;;;;;15.35;8.77;;;12.40;99.90;;;;;;4981027;28;20057;-64
2022/04/13 03:45:12;;;;;;;10.25;7.95;;;12.30;99.90;;;;;;4998207;28;20157;-64
2022/04/13 03:47:39;;;;;;;11.00;8.45;;;12.30;99.90;;;;;;4981212;28;20186;-64
2022/04/13 03:50:06;;;;;;;8.10;7.28;;;12.30;99.90;;;;;;4980175;28;20069;-64
2022/04/13 03:52:35;;;;;;;12.75;8.55;;;12.30;99.90;;;;;;4998657;28;20046;-64
2022/04/13 03:55:04;;;;;;;12.63;8.13;;;12.40;99.90;;;;;;4980993;28;20115;-64
2022/04/13 03:57:29;;;;;;;10.30;7.57;;;12.40;99.90;;;;;;4997769;28;20046;-64
2022/04/13 03:59:55;;;;;;;12.15;9.65;;;12.40;99.90;;;;;;4979688;28;20046;-64
2022/04/13 04:02:21;;;;;;;13.27;9.15;;;12.50;99.90;;;;;;4980978;28;20592;-64
2022/04/13 04:04:47;;;;;;;16.70;9.10;;;12.50;99.90;;;;;;4997404;28;20136;-64
2022/04/13 04:07:12;;;;;;;12.43;9.95;;;12.60;99.90;;;;;;4998166;28;20046;-64
2022/04/13 04:09:38;;;;;;;13.43;9.68;;;12.60;99.90;;;;;;4998786;28;20065;-64
2022/04/13 04:12:04;;;;;;;12.07;9.05;;;12.60;99.90;;;;;;4997502;28;20060;-64
2022/04/13 04:14:29;;;;;;;13.18;9.68;;;12.60;99.90;;;;;;4998358;28;20046;-64
2022/04/13 04:16:55;;;;;;;15.05;8.80;;;12.70;99.90;;;;;;4979773;28;20470;-65
2022/04/13 04:19:21;;;;;;;14.10;8.80;;;12.70;99.90;;;;;;4997778;28;20717;-64
2022/04/13 04:21:47;;;;;;;11.77;8.63;;;12.80;99.90;;;;;;4997504;28;20529;-64
2022/04/13 04:24:12;;;;;;;11.68;8.73;;;12.80;99.90;;;;;;4997884;28;20045;-64
2022/04/13 04:26:38;;;;;;;15.13;9.98;;;12.80;99.90;;;;;;4980135;28;20050;-64
2022/04/13 04:29:04;;;;;;;15.93;9.77;;;12.70;99.90;;;;;;4998279;28;20046;-63
2022/04/13 04:34:14;;;;;;;10.98;8.63;;;12.70;99.90;;;;;;4997321;28;20746;-64
2022/04/13 04:36:39;;;;;;;11.57;8.75;;;12.70;99.90;;;;;;4997707;28;20081;-64
2022/04/13 04:39:05;;;;;;;11.02;8.70;;;12.70;99.90;;;;;;4997681;28;20050;-64
2022/04/13 04:41:30;;;;;;;8.38;7.35;;;12.70;99.90;;;;;;4996892;28;20123;-64
2022/04/13 04:43:56;;;;;;;12.10;7.85;;;12.70;99.90;;;;;;4979754;28;20466;-64
2022/04/13 04:46:21;;;;;;;13.52;9.43;;;12.70;99.90;;;;;;4997063;28;20049;-64
2022/04/13 04:48:47;;;;;;;11.38;7.65;;;12.60;99.90;;;;;;4997571;28;20107;-64
2022/04/13 04:51:13;;;;;;;11.68;8.10;;;12.60;99.90;;;;;;4996895;28;20117;-63
2022/04/13 04:53:38;;;;;;;14.45;9.13;;;12.60;99.90;;;;;;4997264;28;20493;-64
2022/04/13 04:56:04;;;;;;;14.18;9.50;;;12.50;99.90;;;;;;4997614;28;20724;-64
2022/04/13 04:58:31;;;;;;;11.65;9.43;;;12.60;99.90;;;;;;4980223;28;20149;-64
2022/04/13 05:00:56;;;;;;;12.52;9.15;;;12.50;99.90;;;;;;4996569;28;20121;-64
2022/04/13 05:03:22;;;;;;;14.95;7.85;;;12.50;99.90;;;;;;4997484;28;20123;-64
2022/04/13 05:05:47;;;;;;;14.23;9.20;;;12.50;99.90;;;;;;4996755;28;20255;-64
2022/04/13 05:08:13;;;;;;;15.27;8.70;;;12.50;99.90;;;;;;4978594;28;20145;-63
2022/04/13 05:10:41;;;;;;;20.35;11.18;;;12.50;99.90;;;;;;4997101;28;20090;-64
2022/04/13 05:13:06;;;;;;;11.95;9.10;;;12.60;99.90;;;;;;4997181;28;20057;-63
2022/04/13 05:15:32;;;;;;;15.57;9.50;;;12.60;99.90;;;;;;4979165;28;20053;-64
2022/04/13 05:17:58;;;;;;;12.82;9.77;;;12.50;99.90;;;;;;5004645;28;20056;-63
2022/04/13 05:20:24;;;;;;;17.85;11.18;;;12.60;99.90;;;;;;5009600;28;20436;-64
2022/04/13 05:22:49;;;;;;;17.75;9.98;;;12.60;99.90;;;;;;5015569;28;20053;-64
2022/04/13 05:25:16;;;;;;;13.35;8.82;;;12.60;99.90;;;;;;4998194;28;20080;-64
2022/04/13 05:27:42;;;;;;;13.63;10.30;;;12.60;99.90;;;;;;5016066;28;20152;-64
2022/04/13 05:30:10;;;;;;;14.35;11.07;;;12.70;99.90;;;;;;5016135;28;20126;-64
2022/04/13 05:32:57;;;;;;;12.70;10.20;;;12.70;99.90;;;;;;5016282;28;20376;-63
2022/04/13 05:35:25;;;;;;;14.93;10.32;;;12.70;99.90;;;;;;5016276;28;20053;-64
2022/04/13 05:37:51;;;;;;;15.45;8.48;;;12.80;99.90;;;;;;5016314;28;20052;-64
2022/04/13 05:40:17;;;;;;;14.45;10.25;;;12.80;99.90;;;;;;5016961;28;20049;-64
2022/04/13 05:42:43;;;;;;;14.15;10.25;;;12.80;99.90;;;;;;4997981;28;20154;-63
2022/04/13 05:45:10;;;;;;;15.65;10.38;;;12.90;99.90;;;;;;4999073;28;20072;-64
2022/04/13 05:47:36;;;;;;;13.27;9.65;;;12.90;99.90;;;;;;5016473;28;20453;-64
2022/04/13 05:50:03;;;;;;;17.77;9.50;;;12.90;99.90;;;;;;4997913;28;20049;-64
2022/04/13 05:52:28;;;;;;;16.85;11.18;;;13.00;99.90;;;;;;4998572;28;20641;-63
2022/04/13 05:54:54;;;;;;;15.30;9.15;;;12.90;99.90;;;;;;4997664;28;20089;-63
2022/04/13 05:57:19;;;;;;;14.85;9.68;;;12.90;99.90;;;;;;5015476;28;20139;-63
2022/04/13 05:59:45;;;;;;;16.60;11.27;;;12.90;99.90;;;;;;5000971;28;20156;-64
2022/04/13 06:02:10;;;;;;;14.13;10.13;;;12.90;99.90;;;;;;4978483;28;20104;-64
2022/04/13 06:04:36;;;;;;;12.93;10.43;;;12.50;99.90;;;;;;4980971;28;20050;-62
2022/04/13 06:07:01;;;;;;;14.45;10.88;;;12.90;99.90;;;;;;5013521;28;20045;-64
2022/04/13 06:09:27;;;;;;;13.88;9.77;;;12.90;99.90;;;;;;5019684;28;20060;-64
2022/04/13 06:11:53;;;;;;;16.48;10.65;;;12.90;99.90;;;;;;5018731;28;20060;-63
2022/04/13 06:14:19;;;;;;;19.77;11.05;;;12.90;99.90;;;;;;5000744;28;20093;-63
2022/04/13 06:16:44;;;;;;;17.48;11.68;;;13.00;99.90;;;;;;5003479;28;20132;-63
2022/04/13 06:19:10;;;;;;;16.77;11.48;;;13.00;99.90;;;;;;4999966;28;20149;-63
2022/04/13 06:21:36;;;;;;;17.98;11.55;;;13.10;99.90;;;;;;5018502;28;20044;-63
2022/04/13 06:24:02;;;;;;;15.70;11.00;;;13.20;99.90;;;;;;5018218;28;20050;-64
2022/04/13 06:26:27;;;;;;;15.35;11.32;;;13.20;99.90;;;;;;5015280;28;20140;-64
2022/04/13 06:28:53;;;;;;;17.08;11.93;;;13.30;99.90;;;;;;5017742;28;20041;-64
2022/04/13 06:31:19;;;;;;;15.48;10.32;;;13.40;99.90;;;;;;5018397;28;20092;-64
2022/04/13 06:33:45;;;;;;;16.42;10.90;;;13.60;99.90;;;;;;5017336;28;20493;-63
2022/04/13 06:36:11;;;;;;;18.58;10.73;;;13.70;99.90;;;;;;5018302;28;20148;-64
2022/04/13 06:38:40;;;;;;;17.23;10.68;;;13.80;99.90;;;;;;5014902;28;20048;-63
2022/04/13 06:41:07;;;;;;;16.85;10.90;;;13.90;99.90;;;;;;5001244;28;20057;-63
2022/04/13 06:43:32;;;;;;;18.00;11.75;;;13.90;99.90;;;;;;5013322;28;20049;-63
2022/04/13 06:45:58;;;;;;;16.23;11.82;;;14.00;99.90;;;;;;4997192;28;20050;-64
2022/04/13 06:48:23;;;;;;;17.05;10.55;;;14.20;99.90;;;;;;4999119;28;20046;-64
2022/04/13 06:50:49;;;;;;;17.55;11.43;;;14.40;99.90;;;;;;5019049;28;20163;-64
2022/04/13 06:53:17;;;;;;;19.58;12.63;;;14.50;99.90;;;;;;5017268;28;20060;-64
2022/04/13 06:55:43;;;;;;;15.63;11.50;;;14.60;99.90;;;;;;5015419;28;20990;-63
2022/04/13 06:58:09;;;;;;;17.45;11.18;;;14.70;99.90;;;;;;4998451;28;20057;-64
2022/04/13 07:00:35;;;;;;;15.00;10.48;;;14.60;99.90;;;;;;5001920;28;20046;-63
2022/04/13 07:03:01;;;;;;;16.70;11.20;;;14.60;99.90;;;;;;4997250;28;20049;-63
2022/04/13 07:05:27;;;;;;;16.10;11.18;;;14.70;99.90;;;;;;5015892;28;20174;-63
2022/04/13 07:07:54;;;;;;;14.27;8.95;;;14.80;99.90;;;;;;5014272;28;20429;-63
2022/04/13 07:10:19;;;;;;;16.17;9.68;;;14.90;99.90;;;;;;5015761;28;20069;-64
2022/04/13 07:12:45;;;;;;;15.82;9.38;;;14.80;99.90;;;;;;4998299;28;20184;-63
2022/04/13 07:15:11;;;;;;;14.30;9.38;;;14.90;99.90;;;;;;5012834;28;20033;-63
2022/04/13 07:17:36;;;;;;;17.02;9.60;;;15.10;99.90;;;;;;5014560;28;20541;-63
2022/04/13 07:20:02;;;;;;;16.95;9.85;;;15.80;99.90;;;;;;5017265;28;20098;-63
2022/04/13 07:22:28;;;;;;;20.30;10.38;;;16.60;99.90;;;;;;5013486;28;20156;-63
2022/04/13 07:24:54;;;;;;;15.75;11.40;;;17.30;99.90;;;;;;5017025;28;20057;-63
2022/04/13 07:27:19;;;;;;;12.30;9.65;;;17.80;99.90;;;;;;4996281;28;20049;-64
2022/04/13 07:29:45;;;;;;;13.52;9.20;;;18.10;99.90;;;;;;5015883;28;20132;-64
2022/04/13 07:32:10;;;;;;;18.95;10.48;;;18.70;99.90;;;;;;5017898;28;20454;-64
2022/04/13 07:34:36;;;;;;;17.85;11.32;;;18.90;99.90;;;;;;4997151;28;20096;-64
2022/04/13 07:37:03;;;;;;;18.02;9.48;;;19.40;99.90;;;;;;4995122;28;20049;-64
2022/04/13 07:39:29;;;;;;;14.57;10.30;;;19.80;99.90;;;;;;5020035;28;20230;-64
2022/04/13 07:41:54;;;;;;;16.02;10.50;;;19.70;99.90;;;;;;5027386;28;20507;-64
2022/04/13 07:44:20;;;;;;;16.27;10.18;;;19.50;99.90;;;;;;5028724;28;20084;-65
2022/04/13 07:46:46;;;;;;;13.55;10.30;;;18.80;99.90;;;;;;5018450;28;20115;-65
2022/04/13 07:49:12;;;;;;;12.75;8.20;;;18.10;99.90;;;;;;5025216;28;20045;-65
2022/04/13 07:51:40;;;;;;;17.63;9.77;;;17.70;99.90;;;;;;5008944;28;20157;-65
2022/04/13 07:54:06;;;;;;;13.35;9.25;;;17.40;99.90;;;;;;5027144;28;20053;-65
2022/04/13 07:56:32;;;;;;;11.13;8.85;;;16.90;99.90;;;;;;5018297;28;20038;-65
2022/04/13 07:58:58;;;;;;;10.98;9.52;;;16.60;99.90;;;;;;4992347;28;20108;-64
2022/04/13 08:01:23;;;;;;;11.52;9.52;;;16.50;99.90;;;;;;4998531;28;20046;-64
2022/04/13 08:03:49;;;;;;;11.52;8.75;;;16.40;99.90;;;;;;4993939;28;20964;-65
2022/04/13 08:06:14;;;;;;;12.13;9.20;;;16.40;99.90;;;;;;5033315;28;20041;-64
2022/04/13 08:08:40;;;;;;;14.85;8.80;;;16.20;99.90;;;;;;5036851;28;20053;-64
2022/04/13 08:11:06;;;;;;;14.07;10.20;;;16.20;99.90;;;;;;5019526;28;20049;-64
2022/04/13 08:13:32;;;;;;;13.52;8.85;;;16.20;99.90;;;;;;5020141;28;20095;-64
2022/04/13 08:15:58;;;;;;;14.88;9.02;;;16.20;99.90;;;;;;5037766;28;20079;-64
2022/04/13 08:18:23;;;;;;;15.45;9.68;;;16.30;99.90;;;;;;5035600;28;20163;-64
2022/04/13 08:20:49;;;;;;;11.85;8.38;;;16.30;99.90;;;;;;5035988;28;20077;-65
2022/04/13 08:23:15;;;;;;;13.38;8.27;;;16.20;99.90;;;;;;5036108;28;20056;-64
2022/04/13 08:25:41;;;;;;;14.98;9.85;;;16.30;99.90;;;;;;5017297;28;20118;-64
2022/04/13 08:28:07;;;;;;;14.77;9.45;;;16.30;99.90;;;;;;5035970;28;20056;-65
2022/04/13 08:30:33;;;;;;;11.80;8.50;;;16.30;99.90;;;;;;5018273;28;20120;-64
2022/04/13 08:32:58;;;;;;;11.07;8.85;;;16.40;99.90;;;;;;5018574;28;20053;-64
2022/04/13 08:35:25;;;;;;;13.85;9.05;;;16.50;99.90;;;;;;5037505;28;20055;-64
2022/04/13 08:37:50;;;;;;;12.73;8.90;;;16.70;99.90;;;;;;5018858;28;20748;-64
2022/04/13 08:40:17;;;;;;;11.43;7.97;;;17.10;99.90;;;;;;5036148;28;20052;-65
2022/04/13 08:42:57;;;;;;;17.23;8.02;;;17.40;99.90;;;;;;5018943;28;20049;-65
2022/04/13 08:45:28;;;;;;;13.35;8.02;;;17.70;99.90;;;;;;5036608;28;20059;-65
2022/04/13 08:47:56;;;;;;;12.85;8.30;;;17.70;99.90;;;;;;5037074;28;20087;-65
2022/04/13 08:50:25;;;;;;;9.07;6.53;;;17.80;99.90;;;;;;5037447;28;20049;-64
2022/04/13 08:52:56;;;;;;;11.18;7.53;;;18.00;99.90;;;;;;5036055;28;20076;-64
2022/04/13 08:55:23;;;;;;;11.13;7.78;;;18.10;99.90;;;;;;5036966;28;20048;-65
2022/04/13 08:57:53;;;;;;;8.85;7.13;;;18.10;99.90;;;;;;5036363;28;20099;-64
2022/04/13 09:00:21;;;;;;;11.63;7.63;;;18.50;99.90;;;;;;4979008;28;20057;-65
2022/04/13 09:02:50;;;;;;;14.35;8.20;;;18.40;99.90;;;;;;4979395;28;20054;-65
2022/04/13 09:05:18;;;;;;;12.32;8.43;;;18.70;99.90;;;;;;4979141;28;20092;-65
2022/04/13 09:07:51;;;;;;;10.93;7.68;;;19.00;99.90;;;;;;4979119;28;20041;-65
2022/04/13 09:10:21;;;;;;;7.38;6.68;;;19.70;99.90;;;;;;4997845;28;20050;-65
2022/04/13 09:12:50;;;;;;;11.55;7.47;;;19.90;99.90;;;;;;4997532;28;20061;-65
2022/04/13 09:15:15;;;;;;;10.57;7.38;;;19.80;99.90;;;;;;4979606;28;20077;-65
2022/04/13 09:17:42;;;;;;;8.40;6.70;;;19.60;99.90;;;;;;4997511;28;20129;-64
2022/04/13 09:20:09;;;;;;;9.00;6.32;;;19.80;99.90;;;;;;4997115;28;20707;-64
2022/04/13 09:22:35;;;;;;;10.43;7.13;;;20.30;99.90;;;;;;4978596;28;20045;-65
2022/04/13 09:25:02;;;;;;;9.35;6.72;;;20.80;99.70;;;;;;4979501;28;20576;-65
2022/04/13 09:27:28;;;;;;;11.48;7.53;;;21.10;99.50;;;;;;4978928;28;20053;-64
2022/04/13 09:29:54;;;;;;;11.05;7.13;;;21.60;99.00;;;;;;4996508;28;20058;-65
2022/04/13 09:32:20;;;;;;;11.73;7.32;;;22.00;98.10;;;;;;4979183;28;20106;-65
2022/04/13 09:34:45;;;;;;;9.98;6.45;;;22.10;97.20;;;;;;4995498;28;20573;-65
2022/04/13 09:37:11;;;;;;;7.22;5.60;;;22.50;96.60;;;;;;4996042;28;20630;-65
2022/04/13 09:39:37;;;;;;;7.55;6.53;;;22.90;94.50;;;;;;4996281;28;20569;-65
2022/04/13 09:42:04;;;;;;;9.30;6.63;;;23.20;95.90;;;;;;4978655;28;20046;-65
2022/04/13 09:44:30;;;;;;;8.90;5.20;;;23.60;94.50;;;;;;4996485;28;20081;-65
2022/04/13 09:47:10;;;;;;;13.98;6.22;;;23.60;95.30;;;;;;4977925;28;20128;-65
2022/04/13 09:49:44;;;;;;;5.80;5.30;;;23.80;92.70;;;;;;4977417;28;20058;-65
2022/04/13 09:52:09;;;;;;;6.63;5.70;;;24.00;94.30;;;;;;4995969;28;20464;-65
2022/04/13 09:54:44;;;;;;;8.70;5.45;;;24.10;94.30;;;;;;4996424;28;20045;-65
2022/04/13 09:57:21;;;;;;;8.13;5.30;;;24.00;92.00;;;;;;4986081;28;20041;-66
2022/04/13 09:59:54;;;;;;;6.45;5.20;;;23.80;91.40;;;;;;4993706;28;20638;-65
2022/04/13 10:02:41;;;;;;;6.88;5.10;;;24.00;91.10;;;;;;5016404;28;20110;-66
2022/04/13 10:05:09;;;;;;;5.93;4.35;;;24.00;90.50;;;;;;5016288;28;20080;-65
2022/04/13 10:07:35;;;;;;;8.05;4.82;;;24.40;91.60;;;;;;5014723;28;20073;-65
2022/04/13 10:10:04;;;;;;;8.30;5.20;;;24.60;92.20;;;;;;5014398;28;20037;-65
2022/04/13 10:12:46;;;;;;;4.90;4.40;;;24.70;91.60;;;;;;4999862;28;20107;-65
2022/04/13 10:15:12;;;;;;;4.60;3.80;;;24.90;88.70;;;;;;5016147;28;20132;-65
2022/04/13 10:17:39;;;;;;;6.75;4.45;;;24.50;91.50;;;;;;5015564;28;20045;-65
2022/04/13 10:20:05;;;;;;;7.03;4.18;;;24.70;90.60;;;;;;5014385;28;20732;-65
2022/04/13 10:22:30;;;;;;;5.32;4.10;;;24.90;90.40;;;;;;4998279;28;20673;-65
2022/04/13 10:25:16;;;;;;;7.88;4.60;;;25.10;91.00;;;;;;5005107;28;20059;-66
2022/04/13 10:27:56;;;;;;;6.93;4.90;;;24.70;84.80;;;;;;5027553;28;20053;-65
2022/04/13 10:30:33;;;;;;;4.20;3.53;;;24.90;86.80;;;;;;5017858;28;20041;-65
2022/04/13 10:33:09;;;;;;;8.75;4.88;;;24.60;86.70;;;;;;5004731;28;20114;-65
2022/04/13 10:35:38;;;;;;;6.07;3.92;;;24.70;88.30;;;;;;5003950;28;20038;-66
2022/04/13 10:38:04;;;;;;;5.70;3.15;;;25.10;88.90;;;;;;5030713;28;20156;-65
2022/04/13 10:40:31;;;;;;;8.35;3.80;;;25.40;86.60;;;;;;5021755;28;20045;-65
2022/04/13 10:43:00;;;;;;;7.13;4.40;;;25.40;83.10;;;;;;5019418;28;20064;-65
2022/04/13 10:45:28;;;;;;;3.67;3.30;;;24.80;85.50;;;;;;5029282;28;20143;-65
2022/04/13 10:47:56;;;;;;;4.78;3.03;;;24.60;86.30;;;;;;5013885;28;20798;-64
2022/04/13 10:50:36;;;;;;;4.60;4.03;;;24.50;86.40;;;;;;5018329;28;20053;-65
2022/04/13 10:53:23;;;;;;;4.93;3.30;;;24.20;82.90;;;;;;5002589;28;20049;-65
2022/04/13 10:56:00;;;;;;;7.68;3.53;;;23.70;84.70;;;;;;4986102;28;20460;-65
2022/04/13 10:58:37;;;;;;;4.15;3.10;;;23.20;88.20;;;;;;5000450;28;20041;-65
2022/04/13 11:01:05;;;;;;;6.50;4.03;;;22.80;88.60;;;;;;5018373;28;20124;-65
2022/04/13 11:03:38;;;;;;;9.95;4.15;;;22.70;90.30;;;;;;5017390;28;20053;-65
2022/04/13 11:06:06;;;;;;;4.25;3.10;;;22.50;90.40;;;;;;5016719;28;20049;-65
2022/04/13 11:08:51;;;;;;;6.20;3.88;;;22.40;90.70;;;;;;4999193;28;20917;-65
2022/04/13 11:11:26;;;;;;;6.55;3.28;;;22.00;87.90;;;;;;5001051;28;20050;-66
2022/04/13 11:13:52;;;;;;;2.58;2.38;;;22.10;90.80;;;;;;5016521;28;20056;-65
2022/04/13 11:16:22;;;;;;;4.43;3.38;;;22.00;90.50;;;;;;5019234;28;20053;-65
2022/04/13 11:19:17;;;;;;;3.42;2.90;;;22.00;88.70;;;;;;5000016;28;20052;-65
2022/04/13 11:21:52;;;;;;;3.58;2.60;;;22.10;89.90;;;;;;5016355;28;20045;-65
2022/04/13 11:24:33;;;;;;;3.20;2.38;;;22.10;88.60;;;;;;5003676;28;20102;-65
2022/04/13 11:26:58;;;;;;;5.97;2.30;;;21.90;89.50;;;;;;5015158;28;20298;-65
2022/04/13 11:29:38;;;;;;;3.38;2.17;;;22.00;90.20;;;;;;4999298;28;20050;-65
2022/04/13 11:32:05;;;;;;;3.15;2.60;;;21.80;88.40;;;;;;5027038;28;20089;-65
2022/04/13 11:34:44;;;;;;;5.22;2.97;;;21.70;89.50;;;;;;5018277;28;20052;-65
2022/04/13 11:37:18;;;;;;;3.58;3.05;;;21.50;89.30;;;;;;5009292;28;20053;-65
2022/04/13 11:40:02;;;;;;;3.05;2.70;;;21.30;90.40;;;;;;5020501;28;20060;-65
2022/04/13 11:42:34;;;;;;;3.45;2.50;;;21.50;91.00;;;;;;5011510;28;20080;-65
2022/04/13 11:45:02;;;;;;;4.70;3.05;;;21.50;90.60;;;;;;5028867;28;20049;-65
2022/04/13 11:47:43;;;;;;;5.28;2.55;;;21.30;90.20;;;;;;5001439;28;20112;-65
2022/04/13 11:50:16;;;;;;;3.92;1.58;;;21.30;88.90;;;;;;5027609;28;20053;-65
2022/04/13 11:53:20;;;;;;;4.50;1.90;;;21.20;90.00;;;;;;5012598;28;22102;-65
2022/04/13 11:55:46;;;;;;;6.03;2.90;;;21.10;89.40;;;;;;4996703;28;20049;-65
2022/04/13 11:58:13;;;;;;;6.28;2.70;;;21.00;90.20;;;;;;4998828;28;20887;-65
2022/04/13 12:00:45;;;;;;;5.07;3.22;;;20.90;90.70;;;;;;4996980;28;20051;-64
2022/04/13 12:03:24;;;;;;;6.10;4.13;;;20.70;91.00;;;;;;5002005;28;20049;-65
2022/04/13 12:06:03;;;;;;;5.88;3.78;;;20.40;91.60;;;;;;5024689;28;20052;-65
2022/04/13 12:08:35;;;;;;;3.55;3.05;;;20.10;91.60;;;;;;5028417;28;20487;-65
2022/04/13 12:11:04;;;;;;;7.20;3.58;;;19.90;92.20;;;;;;4997913;28;20603;-64
2022/04/13 12:13:34;;;;;;;6.72;3.08;;;19.80;92.40;;;;;;4999635;28;20119;-65
2022/04/13 12:16:01;;;;;;;5.65;2.50;;;19.90;92.50;;;;;;5027252;28;20476;-65
2022/04/13 12:18:29;;;;;;;2.83;2.58;;;19.90;92.70;;;;;;5006321;28;20053;-65
2022/04/13 12:21:10;;;;;;;5.03;2.75;;;19.90;92.90;;;;;;5031872;28;20124;-64
2022/04/13 12:23:38;;;;;;;4.45;2.33;;;19.90;92.70;;;;;;5033706;28;20052;-65
2022/04/13 12:26:05;;;;;;;6.38;2.72;;;20.10;92.70;;;;;;5005379;28;20049;-64
2022/04/13 12:28:31;;;;;;;7.22;3.10;;;20.10;92.70;;;;;;5016015;28;20049;-64
2022/04/13 12:31:06;;;;;;;5.30;3.42;;;20.00;93.10;;;;;;4993630;28;20037;-65
2022/04/13 12:33:32;;;;;;;6.13;3.95;;;19.90;92.50;;;;;;4996549;28;20049;-64
2022/04/13 12:36:08;;;;;;;4.50;2.88;;;19.80;93.40;;;;;;5013215;28;20053;-65
2022/04/13 12:38:35;;;;;;;3.08;1.92;;;19.50;93.00;;;;;;5012631;28;20041;-64
2022/04/13 12:41:12;;;;;;;3.88;1.27;;;19.30;92.50;;;;;;5014291;28;20132;-64
2022/04/13 12:43:43;;;;;;;5.60;2.28;;;19.20;91.70;;;;;;5011752;28;20503;-65
2022/04/13 12:46:11;;;;;;;2.80;1.80;;;19.10;92.90;;;;;;5014511;28;20059;-65